sensor_id;sensor_type;location;lat;lon;timestamp;P1;durP1;ratioP1;P2;durP2;ratioP2
13743;SDS011;6943;52.368;9.966;2022-10-22T00:00:08;10.33;;;9.07;;
13743;SDS011;6943;52.368;9.966;2022-10-22T00:02:35;11.73;;;10.60;;
13743;SDS011;6943;52.368;9.966;2022-10-22T00:05:01;10.47;;;9.37;;
13743;SDS011;6943;52.368;9.966;2022-10-22T00:07:28;14.53;;;12.10;;
13743;SDS011;6943;52.368;9.966;2022-10-22T00:09:53;15.20;;;12.87;;
13743;SDS011;6943;52.368;9.966;2022-10-22T00:12:19;12.37;;;11.17;;
13743;SDS011;6943;52.368;9.966;2022-10-22T00:14:45;12.47;;;9.70;;
13743;SDS011;6943;52.368;9.966;2022-10-22T00:17:11;12.53;;;10.77;;
13743;SDS011;6943;52.368;9.966;2022-10-22T00:19:37;10.97;;;9.80;;
13743;SDS011;6943;52.368;9.966;2022-10-22T00:22:03;9.37;;;8.13;;
13743;SDS011;6943;52.368;9.966;2022-10-22T00:24:30;9.83;;;8.83;;
13743;SDS011;6943;52.368;9.966;2022-10-22T00:26:56;13.33;;;9.43;;
13743;SDS011;6943;52.368;9.966;2022-10-22T00:29:21;11.03;;;8.83;;
13743;SDS011;6943;52.368;9.966;2022-10-22T00:31:47;10.67;;;8.60;;
13743;SDS011;6943;52.368;9.966;2022-10-22T00:34:17;9.70;;;8.77;;
13743;SDS011;6943;52.368;9.966;2022-10-22T00:36:44;9.57;;;8.63;;
13743;SDS011;6943;52.368;9.966;2022-10-22T00:39:10;9.53;;;8.63;;
13743;SDS011;6943;52.368;9.966;2022-10-22T00:41:37;9.90;;;8.90;;
13743;SDS011;6943;52.368;9.966;2022-10-22T00:44:04;11.50;;;9.70;;
13743;SDS011;6943;52.368;9.966;2022-10-22T00:46:30;10.50;;;9.40;;
13743;SDS011;6943;52.368;9.966;2022-10-22T00:48:56;10.17;;;9.17;;
13743;SDS011;6943;52.368;9.966;2022-10-22T00:51:24;13.03;;;10.07;;
13743;SDS011;6943;52.368;9.966;2022-10-22T00:53:54;10.50;;;9.43;;
13743;SDS011;6943;52.368;9.966;2022-10-22T00:56:24;13.20;;;9.87;;
13743;SDS011;6943;52.368;9.966;2022-10-22T00:58:51;11.13;;;9.97;;
13743;SDS011;6943;52.368;9.966;2022-10-22T01:01:29;11.40;;;10.07;;
13743;SDS011;6943;52.368;9.966;2022-10-22T01:03:55;12.73;;;10.33;;
13743;SDS011;6943;52.368;9.966;2022-10-22T01:06:26;11.60;;;10.03;;
13743;SDS011;6943;52.368;9.966;2022-10-22T01:14:17;12.90;;;11.17;;
13743;SDS011;6943;52.368;9.966;2022-10-22T01:16:58;13.00;;;11.17;;
13743;SDS011;6943;52.368;9.966;2022-10-22T01:19:56;12.00;;;10.80;;
13743;SDS011;6943;52.368;9.966;2022-10-22T01:22:43;13.50;;;10.60;;
13743;SDS011;6943;52.368;9.966;2022-10-22T01:25:33;13.50;;;10.73;;
13743;SDS011;6943;52.368;9.966;2022-10-22T01:30:42;11.87;;;10.60;;
13743;SDS011;6943;52.368;9.966;2022-10-22T01:33:09;11.53;;;10.37;;
13743;SDS011;6943;52.368;9.966;2022-10-22T01:35:38;13.83;;;10.80;;
13743;SDS011;6943;52.368;9.966;2022-10-22T01:38:06;13.40;;;11.73;;
13743;SDS011;6943;52.368;9.966;2022-10-22T01:40:36;13.00;;;11.60;;
13743;SDS011;6943;52.368;9.966;2022-10-22T01:43:04;14.47;;;10.80;;
13743;SDS011;6943;52.368;9.966;2022-10-22T01:45:32;13.03;;;10.30;;
13743;SDS011;6943;52.368;9.966;2022-10-22T01:51:20;11.87;;;10.30;;
13743;SDS011;6943;52.368;9.966;2022-10-22T01:56:28;12.20;;;10.53;;
13743;SDS011;6943;52.368;9.966;2022-10-22T02:01:58;16.70;;;10.60;;
13743;SDS011;6943;52.368;9.966;2022-10-22T02:04:32;11.70;;;10.37;;
13743;SDS011;6943;52.368;9.966;2022-10-22T02:07:05;12.67;;;10.63;;
13743;SDS011;6943;52.368;9.966;2022-10-22T02:09:35;12.20;;;10.83;;
13743;SDS011;6943;52.368;9.966;2022-10-22T02:12:02;11.70;;;10.47;;
13743;SDS011;6943;52.368;9.966;2022-10-22T02:14:30;11.30;;;9.90;;
13743;SDS011;6943;52.368;9.966;2022-10-22T02:16:58;11.80;;;10.23;;
13743;SDS011;6943;52.368;9.966;2022-10-22T02:19:26;10.70;;;9.70;;
13743;SDS011;6943;52.368;9.966;2022-10-22T02:22:05;10.53;;;9.43;;
13743;SDS011;6943;52.368;9.966;2022-10-22T02:24:31;11.70;;;9.60;;
13743;SDS011;6943;52.368;9.966;2022-10-22T02:27:00;11.00;;;9.43;;
13743;SDS011;6943;52.368;9.966;2022-10-22T02:29:29;13.13;;;9.73;;
13743;SDS011;6943;52.368;9.966;2022-10-22T02:32:02;10.50;;;9.40;;
13743;SDS011;6943;52.368;9.966;2022-10-22T02:34:31;12.30;;;9.77;;
13743;SDS011;6943;52.368;9.966;2022-10-22T02:36:58;12.00;;;9.73;;
13743;SDS011;6943;52.368;9.966;2022-10-22T02:39:26;10.40;;;9.40;;
13743;SDS011;6943;52.368;9.966;2022-10-22T02:41:53;13.27;;;10.53;;
13743;SDS011;6943;52.368;9.966;2022-10-22T02:44:20;12.73;;;9.40;;
13743;SDS011;6943;52.368;9.966;2022-10-22T02:46:46;11.03;;;9.60;;
13743;SDS011;6943;52.368;9.966;2022-10-22T02:49:13;11.37;;;9.23;;
13743;SDS011;6943;52.368;9.966;2022-10-22T02:51:38;10.00;;;9.00;;
13743;SDS011;6943;52.368;9.966;2022-10-22T02:54:04;10.57;;;9.53;;
13743;SDS011;6943;52.368;9.966;2022-10-22T02:56:29;11.40;;;9.53;;
13743;SDS011;6943;52.368;9.966;2022-10-22T02:58:55;12.27;;;8.90;;
13743;SDS011;6943;52.368;9.966;2022-10-22T03:01:20;10.83;;;9.50;;
13743;SDS011;6943;52.368;9.966;2022-10-22T03:03:46;11.07;;;9.30;;
13743;SDS011;6943;52.368;9.966;2022-10-22T03:06:12;9.70;;;8.70;;
13743;SDS011;6943;52.368;9.966;2022-10-22T03:08:37;10.07;;;9.07;;
13743;SDS011;6943;52.368;9.966;2022-10-22T03:11:03;12.00;;;10.70;;
13743;SDS011;6943;52.368;9.966;2022-10-22T03:13:28;10.70;;;9.60;;
13743;SDS011;6943;52.368;9.966;2022-10-22T03:15:54;16.23;;;12.57;;
13743;SDS011;6943;52.368;9.966;2022-10-22T03:18:19;13.90;;;11.40;;
13743;SDS011;6943;52.368;9.966;2022-10-22T03:20:45;18.93;;;15.97;;
13743;SDS011;6943;52.368;9.966;2022-10-22T03:23:11;10.57;;;9.50;;
13743;SDS011;6943;52.368;9.966;2022-10-22T03:25:38;13.67;;;9.43;;
13743;SDS011;6943;52.368;9.966;2022-10-22T03:28:07;11.50;;;8.63;;
13743;SDS011;6943;52.368;9.966;2022-10-22T03:30:35;10.37;;;8.90;;
13743;SDS011;6943;52.368;9.966;2022-10-22T03:33:01;11.17;;;8.30;;
13743;SDS011;6943;52.368;9.966;2022-10-22T03:35:26;14.40;;;9.20;;
13743;SDS011;6943;52.368;9.966;2022-10-22T03:37:52;8.60;;;7.80;;
13743;SDS011;6943;52.368;9.966;2022-10-22T03:40:18;10.63;;;8.20;;
13743;SDS011;6943;52.368;9.966;2022-10-22T03:42:44;9.57;;;8.53;;
13743;SDS011;6943;52.368;9.966;2022-10-22T03:45:10;10.47;;;8.77;;
13743;SDS011;6943;52.368;9.966;2022-10-22T03:47:36;10.20;;;9.20;;
13743;SDS011;6943;52.368;9.966;2022-10-22T03:50:02;12.20;;;9.87;;
13743;SDS011;6943;52.368;9.966;2022-10-22T03:52:33;16.37;;;11.70;;
13743;SDS011;6943;52.368;9.966;2022-10-22T03:55:00;12.40;;;11.03;;
13743;SDS011;6943;52.368;9.966;2022-10-22T03:57:26;14.27;;;11.13;;
13743;SDS011;6943;52.368;9.966;2022-10-22T03:59:52;16.10;;;12.00;;
13743;SDS011;6943;52.368;9.966;2022-10-22T04:02:17;13.50;;;10.03;;
13743;SDS011;6943;52.368;9.966;2022-10-22T04:04:43;11.90;;;9.87;;
13743;SDS011;6943;52.368;9.966;2022-10-22T04:07:08;13.47;;;10.50;;
13743;SDS011;6943;52.368;9.966;2022-10-22T04:09:34;10.07;;;9.07;;
13743;SDS011;6943;52.368;9.966;2022-10-22T04:11:59;23.10;;;16.27;;
13743;SDS011;6943;52.368;9.966;2022-10-22T04:14:25;11.10;;;9.23;;
13743;SDS011;6943;52.368;9.966;2022-10-22T04:16:51;9.30;;;8.17;;
13743;SDS011;6943;52.368;9.966;2022-10-22T04:19:16;9.87;;;8.10;;
13743;SDS011;6943;52.368;9.966;2022-10-22T04:21:42;11.80;;;9.97;;
13743;SDS011;6943;52.368;9.966;2022-10-22T04:24:08;12.03;;;9.10;;
13743;SDS011;6943;52.368;9.966;2022-10-22T04:26:33;12.60;;;8.40;;
13743;SDS011;6943;52.368;9.966;2022-10-22T04:28:59;11.93;;;7.80;;
13743;SDS011;6943;52.368;9.966;2022-10-22T04:31:25;10.23;;;9.17;;
13743;SDS011;6943;52.368;9.966;2022-10-22T04:33:54;12.67;;;8.63;;
13743;SDS011;6943;52.368;9.966;2022-10-22T04:36:20;8.77;;;7.87;;
13743;SDS011;6943;52.368;9.966;2022-10-22T04:38:51;9.63;;;7.70;;
13743;SDS011;6943;52.368;9.966;2022-10-22T04:41:22;13.80;;;8.77;;
13743;SDS011;6943;52.368;9.966;2022-10-22T04:43:49;9.47;;;8.47;;
13743;SDS011;6943;52.368;9.966;2022-10-22T04:46:17;13.60;;;8.97;;
13743;SDS011;6943;52.368;9.966;2022-10-22T04:48:43;11.37;;;10.13;;
13743;SDS011;6943;52.368;9.966;2022-10-22T04:51:10;12.33;;;9.60;;
13743;SDS011;6943;52.368;9.966;2022-10-22T04:53:40;11.73;;;9.60;;
13743;SDS011;6943;52.368;9.966;2022-10-22T04:58:32;10.50;;;9.30;;
13743;SDS011;6943;52.368;9.966;2022-10-22T05:00:58;11.83;;;10.10;;
13743;SDS011;6943;52.368;9.966;2022-10-22T05:03:24;12.07;;;10.27;;
13743;SDS011;6943;52.368;9.966;2022-10-22T05:05:49;12.07;;;10.87;;
13743;SDS011;6943;52.368;9.966;2022-10-22T05:08:15;14.63;;;10.57;;
13743;SDS011;6943;52.368;9.966;2022-10-22T05:10:40;11.83;;;10.60;;
13743;SDS011;6943;52.368;9.966;2022-10-22T05:13:06;12.90;;;10.07;;
13743;SDS011;6943;52.368;9.966;2022-10-22T05:15:32;14.00;;;9.97;;
13743;SDS011;6943;52.368;9.966;2022-10-22T05:17:59;13.00;;;10.77;;
13743;SDS011;6943;52.368;9.966;2022-10-22T05:20:24;12.57;;;9.80;;
13743;SDS011;6943;52.368;9.966;2022-10-22T05:22:50;12.17;;;9.80;;
13743;SDS011;6943;52.368;9.966;2022-10-22T05:25:15;12.43;;;11.13;;
13743;SDS011;6943;52.368;9.966;2022-10-22T05:27:41;12.83;;;10.43;;
13743;SDS011;6943;52.368;9.966;2022-10-22T05:30:06;13.77;;;10.70;;
13743;SDS011;6943;52.368;9.966;2022-10-22T05:32:33;11.63;;;10.07;;
13743;SDS011;6943;52.368;9.966;2022-10-22T05:34:59;13.47;;;10.10;;
13743;SDS011;6943;52.368;9.966;2022-10-22T05:37:25;15.30;;;10.80;;
13743;SDS011;6943;52.368;9.966;2022-10-22T05:39:50;12.63;;;10.33;;
13743;SDS011;6943;52.368;9.966;2022-10-22T05:42:16;14.90;;;10.67;;
13743;SDS011;6943;52.368;9.966;2022-10-22T05:44:41;12.67;;;10.70;;
13743;SDS011;6943;52.368;9.966;2022-10-22T05:47:07;13.67;;;10.93;;
13743;SDS011;6943;52.368;9.966;2022-10-22T05:49:33;12.80;;;11.43;;
13743;SDS011;6943;52.368;9.966;2022-10-22T05:51:59;13.77;;;11.07;;
13743;SDS011;6943;52.368;9.966;2022-10-22T05:54:24;16.47;;;11.30;;
13743;SDS011;6943;52.368;9.966;2022-10-22T05:56:50;15.37;;;12.67;;
13743;SDS011;6943;52.368;9.966;2022-10-22T05:59:16;12.57;;;11.30;;
13743;SDS011;6943;52.368;9.966;2022-10-22T06:01:41;19.20;;;12.30;;
13743;SDS011;6943;52.368;9.966;2022-10-22T06:04:09;17.50;;;12.53;;
13743;SDS011;6943;52.368;9.966;2022-10-22T06:06:36;11.97;;;10.73;;
13743;SDS011;6943;52.368;9.966;2022-10-22T06:11:44;15.80;;;11.97;;
13743;SDS011;6943;52.368;9.966;2022-10-22T06:14:10;13.80;;;12.17;;
13743;SDS011;6943;52.368;9.966;2022-10-22T06:16:36;16.20;;;10.80;;
13743;SDS011;6943;52.368;9.966;2022-10-22T06:19:02;13.10;;;10.80;;
13743;SDS011;6943;52.368;9.966;2022-10-22T06:21:28;12.20;;;10.40;;
13743;SDS011;6943;52.368;9.966;2022-10-22T06:23:57;11.80;;;10.60;;
13743;SDS011;6943;52.368;9.966;2022-10-22T06:26:24;11.97;;;10.63;;
13743;SDS011;6943;52.368;9.966;2022-10-22T06:28:49;15.63;;;11.53;;
13743;SDS011;6943;52.368;9.966;2022-10-22T06:31:15;12.83;;;11.07;;
13743;SDS011;6943;52.368;9.966;2022-10-22T06:33:41;15.13;;;9.93;;
13743;SDS011;6943;52.368;9.966;2022-10-22T06:38:34;11.83;;;9.13;;
13743;SDS011;6943;52.368;9.966;2022-10-22T06:41:08;10.87;;;9.10;;
13743;SDS011;6943;52.368;9.966;2022-10-22T06:43:35;11.70;;;9.63;;
13743;SDS011;6943;52.368;9.966;2022-10-22T06:46:01;10.97;;;8.80;;
13743;SDS011;6943;52.368;9.966;2022-10-22T06:48:28;10.53;;;8.57;;
13743;SDS011;6943;52.368;9.966;2022-10-22T06:50:54;10.30;;;9.20;;
13743;SDS011;6943;52.368;9.966;2022-10-22T06:53:19;11.70;;;9.00;;
13743;SDS011;6943;52.368;9.966;2022-10-22T06:55:45;10.20;;;9.20;;
13743;SDS011;6943;52.368;9.966;2022-10-22T06:58:10;10.80;;;9.80;;
13743;SDS011;6943;52.368;9.966;2022-10-22T07:00:36;9.70;;;8.57;;
13743;SDS011;6943;52.368;9.966;2022-10-22T07:03:01;11.67;;;8.90;;
13743;SDS011;6943;52.368;9.966;2022-10-22T07:05:27;10.70;;;9.23;;
13743;SDS011;6943;52.368;9.966;2022-10-22T07:07:52;10.67;;;9.57;;
13743;SDS011;6943;52.368;9.966;2022-10-22T07:10:18;10.60;;;9.40;;
13743;SDS011;6943;52.368;9.966;2022-10-22T07:12:43;12.43;;;11.17;;
13743;SDS011;6943;52.368;9.966;2022-10-22T07:15:09;13.23;;;10.13;;
13743;SDS011;6943;52.368;9.966;2022-10-22T07:17:35;12.37;;;10.17;;
13743;SDS011;6943;52.368;9.966;2022-10-22T07:20:01;10.70;;;9.70;;
13743;SDS011;6943;52.368;9.966;2022-10-22T07:22:27;10.43;;;9.10;;
13743;SDS011;6943;52.368;9.966;2022-10-22T07:24:53;9.30;;;8.40;;
13743;SDS011;6943;52.368;9.966;2022-10-22T07:27:19;10.00;;;7.40;;
13743;SDS011;6943;52.368;9.966;2022-10-22T07:29:45;9.97;;;8.07;;
13743;SDS011;6943;52.368;9.966;2022-10-22T07:32:11;9.47;;;7.00;;
13743;SDS011;6943;52.368;9.966;2022-10-22T07:34:37;9.50;;;8.20;;
13743;SDS011;6943;52.368;9.966;2022-10-22T07:37:03;9.77;;;7.37;;
13743;SDS011;6943;52.368;9.966;2022-10-22T07:39:29;8.40;;;6.80;;
13743;SDS011;6943;52.368;9.966;2022-10-22T07:41:55;7.53;;;5.07;;
13743;SDS011;6943;52.368;9.966;2022-10-22T07:44:21;5.53;;;4.83;;
13743;SDS011;6943;52.368;9.966;2022-10-22T07:46:46;4.87;;;4.47;;
13743;SDS011;6943;52.368;9.966;2022-10-22T07:49:12;6.00;;;4.47;;
13743;SDS011;6943;52.368;9.966;2022-10-22T07:51:38;4.90;;;4.40;;
13743;SDS011;6943;52.368;9.966;2022-10-22T07:54:04;5.90;;;3.90;;
13743;SDS011;6943;52.368;9.966;2022-10-22T07:56:30;5.40;;;4.43;;
13743;SDS011;6943;52.368;9.966;2022-10-22T07:58:56;7.10;;;4.03;;
13743;SDS011;6943;52.368;9.966;2022-10-22T08:01:22;5.80;;;3.70;;
13743;SDS011;6943;52.368;9.966;2022-10-22T08:03:48;6.40;;;4.00;;
13743;SDS011;6943;52.368;9.966;2022-10-22T08:06:14;4.07;;;3.50;;
13743;SDS011;6943;52.368;9.966;2022-10-22T08:08:41;5.10;;;3.83;;
13743;SDS011;6943;52.368;9.966;2022-10-22T08:11:09;3.97;;;3.50;;
13743;SDS011;6943;52.368;9.966;2022-10-22T08:13:35;4.75;;;3.17;;
13743;SDS011;6943;52.368;9.966;2022-10-22T08:16:01;3.38;;;3.17;;
13743;SDS011;6943;52.368;9.966;2022-10-22T08:18:27;4.60;;;3.22;;
13743;SDS011;6943;52.368;9.966;2022-10-22T08:20:54;3.72;;;3.28;;
13743;SDS011;6943;52.368;9.966;2022-10-22T08:23:20;3.97;;;3.10;;
13743;SDS011;6943;52.368;9.966;2022-10-22T08:25:46;4.63;;;3.40;;
13743;SDS011;6943;52.368;9.966;2022-10-22T08:28:12;3.40;;;3.13;;
13743;SDS011;6943;52.368;9.966;2022-10-22T08:30:38;6.28;;;3.78;;
13743;SDS011;6943;52.368;9.966;2022-10-22T08:33:04;4.38;;;3.42;;
13743;SDS011;6943;52.368;9.966;2022-10-22T08:35:30;4.90;;;3.90;;
13743;SDS011;6943;52.368;9.966;2022-10-22T08:37:56;6.03;;;3.20;;
13743;SDS011;6943;52.368;9.966;2022-10-22T08:40:25;5.15;;;3.50;;
13743;SDS011;6943;52.368;9.966;2022-10-22T08:45:59;6.32;;;3.08;;
13743;SDS011;6943;52.368;9.966;2022-10-22T08:51:17;4.28;;;3.60;;
13743;SDS011;6943;52.368;9.966;2022-10-22T08:56:29;5.57;;;3.05;;
13743;SDS011;6943;52.368;9.966;2022-10-22T08:59:00;3.50;;;3.20;;
13743;SDS011;6943;52.368;9.966;2022-10-22T09:01:32;4.90;;;2.88;;
13743;SDS011;6943;52.368;9.966;2022-10-22T09:04:09;5.80;;;3.33;;
13743;SDS011;6943;52.368;9.966;2022-10-22T09:06:36;3.15;;;2.72;;
13743;SDS011;6943;52.368;9.966;2022-10-22T09:09:08;3.75;;;3.08;;
13743;SDS011;6943;52.368;9.966;2022-10-22T09:11:36;5.53;;;2.92;;
13743;SDS011;6943;52.368;9.966;2022-10-22T09:14:03;3.20;;;2.60;;
13743;SDS011;6943;52.368;9.966;2022-10-22T09:16:34;4.75;;;2.63;;
13743;SDS011;6943;52.368;9.966;2022-10-22T09:19:20;4.63;;;3.80;;
13743;SDS011;6943;52.368;9.966;2022-10-22T09:21:59;5.68;;;5.03;;
13743;SDS011;6943;52.368;9.966;2022-10-22T09:26:52;12.68;;;8.43;;
13743;SDS011;6943;52.368;9.966;2022-10-22T09:29:22;7.15;;;3.97;;
13743;SDS011;6943;52.368;9.966;2022-10-22T09:31:48;5.10;;;3.50;;
13743;SDS011;6943;52.368;9.966;2022-10-22T09:34:15;5.05;;;3.83;;
13743;SDS011;6943;52.368;9.966;2022-10-22T09:36:44;6.83;;;4.13;;
13743;SDS011;6943;52.368;9.966;2022-10-22T09:39:20;5.03;;;4.30;;
13743;SDS011;6943;52.368;9.966;2022-10-22T09:41:46;6.17;;;4.50;;
13743;SDS011;6943;52.368;9.966;2022-10-22T09:44:12;6.23;;;4.40;;
13743;SDS011;6943;52.368;9.966;2022-10-22T09:46:38;7.97;;;4.70;;
13743;SDS011;6943;52.368;9.966;2022-10-22T09:49:12;5.57;;;4.13;;
13743;SDS011;6943;52.368;9.966;2022-10-22T09:51:57;6.73;;;4.20;;
13743;SDS011;6943;52.368;9.966;2022-10-22T09:54:24;6.83;;;4.07;;
13743;SDS011;6943;52.368;9.966;2022-10-22T09:56:52;4.87;;;3.60;;
13743;SDS011;6943;52.368;9.966;2022-10-22T09:59:23;5.60;;;3.77;;
13743;SDS011;6943;52.368;9.966;2022-10-22T10:01:55;5.60;;;3.30;;
13743;SDS011;6943;52.368;9.966;2022-10-22T10:04:21;4.03;;;3.33;;
13743;SDS011;6943;52.368;9.966;2022-10-22T10:06:51;4.80;;;3.30;;
13743;SDS011;6943;52.368;9.966;2022-10-22T10:09:19;7.17;;;4.03;;
13743;SDS011;6943;52.368;9.966;2022-10-22T10:12:05;4.27;;;3.30;;
13743;SDS011;6943;52.368;9.966;2022-10-22T10:14:42;5.63;;;3.37;;
13743;SDS011;6943;52.368;9.966;2022-10-22T10:17:15;8.33;;;3.00;;
13743;SDS011;6943;52.368;9.966;2022-10-22T10:19:45;4.50;;;2.93;;
13743;SDS011;6943;52.368;9.966;2022-10-22T10:25:09;4.17;;;3.30;;
13743;SDS011;6943;52.368;9.966;2022-10-22T10:27:41;5.13;;;2.90;;
13743;SDS011;6943;52.368;9.966;2022-10-22T10:30:10;3.57;;;2.77;;
13743;SDS011;6943;52.368;9.966;2022-10-22T10:35:08;4.10;;;3.37;;
13743;SDS011;6943;52.368;9.966;2022-10-22T10:37:41;3.57;;;2.90;;
13743;SDS011;6943;52.368;9.966;2022-10-22T10:42:54;6.30;;;2.73;;
13743;SDS011;6943;52.368;9.966;2022-10-22T10:45:36;5.33;;;3.67;;
13743;SDS011;6943;52.368;9.966;2022-10-22T10:53:20;3.10;;;2.80;;
13743;SDS011;6943;52.368;9.966;2022-10-22T10:55:52;6.90;;;2.90;;
13743;SDS011;6943;52.368;9.966;2022-10-22T10:58:29;3.57;;;2.70;;
13743;SDS011;6943;52.368;9.966;2022-10-22T11:00:57;3.23;;;2.83;;
13743;SDS011;6943;52.368;9.966;2022-10-22T11:08:21;7.27;;;2.90;;
13743;SDS011;6943;52.368;9.966;2022-10-22T11:10:53;8.13;;;3.13;;
13743;SDS011;6943;52.368;9.966;2022-10-22T11:19:21;6.20;;;2.80;;
13743;SDS011;6943;52.368;9.966;2022-10-22T11:21:31;6.13;;;2.93;;
13743;SDS011;6943;52.368;9.966;2022-10-22T11:24:15;6.17;;;3.07;;
13743;SDS011;6943;52.368;9.966;2022-10-22T11:26:48;5.33;;;2.87;;
13743;SDS011;6943;52.368;9.966;2022-10-22T11:29:17;6.47;;;2.33;;
13743;SDS011;6943;52.368;9.966;2022-10-22T11:31:47;5.57;;;3.40;;
13743;SDS011;6943;52.368;9.966;2022-10-22T11:36:48;4.77;;;3.77;;
13743;SDS011;6943;52.368;9.966;2022-10-22T11:42:03;5.53;;;2.60;;
13743;SDS011;6943;52.368;9.966;2022-10-22T11:44:29;5.23;;;2.93;;
13743;SDS011;6943;52.368;9.966;2022-10-22T11:47:19;6.50;;;3.23;;
13743;SDS011;6943;52.368;9.966;2022-10-22T11:49:44;5.63;;;3.03;;
13743;SDS011;6943;52.368;9.966;2022-10-22T11:52:26;5.33;;;3.17;;
13743;SDS011;6943;52.368;9.966;2022-10-22T11:54:53;9.00;;;3.27;;
13743;SDS011;6943;52.368;9.966;2022-10-22T11:57:20;3.70;;;3.03;;
13743;SDS011;6943;52.368;9.966;2022-10-22T12:04:49;6.70;;;3.33;;
13743;SDS011;6943;52.368;9.966;2022-10-22T12:07:29;7.33;;;3.57;;
13743;SDS011;6943;52.368;9.966;2022-10-22T12:09:56;5.73;;;3.40;;
13743;SDS011;6943;52.368;9.966;2022-10-22T12:12:22;11.13;;;6.53;;
13743;SDS011;6943;52.368;9.966;2022-10-22T12:14:52;8.47;;;2.70;;
13743;SDS011;6943;52.368;9.966;2022-10-22T12:17:19;5.17;;;2.50;;
13743;SDS011;6943;52.368;9.966;2022-10-22T12:19:47;7.57;;;3.20;;
13743;SDS011;6943;52.368;9.966;2022-10-22T12:24:41;14.07;;;9.40;;
13743;SDS011;6943;52.368;9.966;2022-10-22T12:27:17;5.30;;;2.93;;
13743;SDS011;6943;52.368;9.966;2022-10-22T12:29:44;5.53;;;2.57;;
13743;SDS011;6943;52.368;9.966;2022-10-22T12:32:10;5.67;;;2.53;;
13743;SDS011;6943;52.368;9.966;2022-10-22T12:34:43;6.23;;;2.20;;
13743;SDS011;6943;52.368;9.966;2022-10-22T12:37:09;6.23;;;2.20;;
13743;SDS011;6943;52.368;9.966;2022-10-22T12:39:37;6.60;;;2.53;;
13743;SDS011;6943;52.368;9.966;2022-10-22T12:42:03;6.50;;;2.40;;
13743;SDS011;6943;52.368;9.966;2022-10-22T12:44:29;4.57;;;2.30;;
13743;SDS011;6943;52.368;9.966;2022-10-22T12:46:57;3.53;;;2.27;;
13743;SDS011;6943;52.368;9.966;2022-10-22T12:49:31;6.10;;;2.30;;
13743;SDS011;6943;52.368;9.966;2022-10-22T12:51:59;5.97;;;2.87;;
13743;SDS011;6943;52.368;9.966;2022-10-22T12:54:26;6.93;;;2.37;;
13743;SDS011;6943;52.368;9.966;2022-10-22T12:56:53;4.90;;;2.30;;
13743;SDS011;6943;52.368;9.966;2022-10-22T12:59:53;6.60;;;2.63;;
13743;SDS011;6943;52.368;9.966;2022-10-22T13:02:19;8.07;;;2.60;;
13743;SDS011;6943;52.368;9.966;2022-10-22T13:07:36;6.37;;;2.37;;
13743;SDS011;6943;52.368;9.966;2022-10-22T13:10:13;6.07;;;2.17;;
13743;SDS011;6943;52.368;9.966;2022-10-22T13:12:43;5.23;;;2.00;;
13743;SDS011;6943;52.368;9.966;2022-10-22T13:15:19;5.43;;;2.13;;
13743;SDS011;6943;52.368;9.966;2022-10-22T13:17:45;4.67;;;2.30;;
13743;SDS011;6943;52.368;9.966;2022-10-22T13:27:59;4.83;;;2.03;;
13743;SDS011;6943;52.368;9.966;2022-10-22T13:30:30;3.97;;;2.00;;
13743;SDS011;6943;52.368;9.966;2022-10-22T13:32:58;4.00;;;1.87;;
13743;SDS011;6943;52.368;9.966;2022-10-22T13:35:25;5.07;;;2.10;;
13743;SDS011;6943;52.368;9.966;2022-10-22T13:37:52;6.47;;;2.30;;
13743;SDS011;6943;52.368;9.966;2022-10-22T13:40:18;3.43;;;1.80;;
13743;SDS011;6943;52.368;9.966;2022-10-22T13:42:44;8.17;;;2.37;;
13743;SDS011;6943;52.368;9.966;2022-10-22T13:45:11;5.33;;;2.20;;
13743;SDS011;6943;52.368;9.966;2022-10-22T13:47:37;5.67;;;2.00;;
13743;SDS011;6943;52.368;9.966;2022-10-22T13:50:06;6.23;;;2.27;;
13743;SDS011;6943;52.368;9.966;2022-10-22T13:52:40;7.27;;;2.30;;
13743;SDS011;6943;52.368;9.966;2022-10-22T13:55:16;4.30;;;2.07;;
13743;SDS011;6943;52.368;9.966;2022-10-22T13:57:42;6.00;;;2.40;;
13743;SDS011;6943;52.368;9.966;2022-10-22T14:00:13;5.47;;;2.33;;
13743;SDS011;6943;52.368;9.966;2022-10-22T14:02:39;7.73;;;2.87;;
13743;SDS011;6943;52.368;9.966;2022-10-22T14:05:07;7.93;;;3.40;;
13743;SDS011;6943;52.368;9.966;2022-10-22T14:07:33;6.83;;;3.10;;
13743;SDS011;6943;52.368;9.966;2022-10-22T14:09:59;8.33;;;2.30;;
13743;SDS011;6943;52.368;9.966;2022-10-22T14:12:25;5.63;;;2.13;;
13743;SDS011;6943;52.368;9.966;2022-10-22T14:14:52;5.97;;;1.90;;
13743;SDS011;6943;52.368;9.966;2022-10-22T14:17:18;4.13;;;1.90;;
13743;SDS011;6943;52.368;9.966;2022-10-22T14:19:45;2.97;;;2.00;;
13743;SDS011;6943;52.368;9.966;2022-10-22T14:22:12;7.30;;;3.00;;
13743;SDS011;6943;52.368;9.966;2022-10-22T14:24:39;5.73;;;2.20;;
13743;SDS011;6943;52.368;9.966;2022-10-22T14:27:05;5.37;;;1.90;;
13743;SDS011;6943;52.368;9.966;2022-10-22T14:29:30;5.70;;;2.30;;
13743;SDS011;6943;52.368;9.966;2022-10-22T14:31:56;5.37;;;2.10;;
13743;SDS011;6943;52.368;9.966;2022-10-22T14:34:22;5.47;;;2.27;;
13743;SDS011;6943;52.368;9.966;2022-10-22T14:36:48;5.53;;;2.10;;
13743;SDS011;6943;52.368;9.966;2022-10-22T14:39:14;4.20;;;1.90;;
13743;SDS011;6943;52.368;9.966;2022-10-22T14:41:42;3.23;;;1.73;;
13743;SDS011;6943;52.368;9.966;2022-10-22T14:44:10;6.43;;;2.13;;
13743;SDS011;6943;52.368;9.966;2022-10-22T14:46:37;4.13;;;2.07;;
13743;SDS011;6943;52.368;9.966;2022-10-22T14:49:06;6.37;;;2.40;;
13743;SDS011;6943;52.368;9.966;2022-10-22T14:51:31;5.57;;;2.47;;
13743;SDS011;6943;52.368;9.966;2022-10-22T14:53:57;8.07;;;2.47;;
13743;SDS011;6943;52.368;9.966;2022-10-22T14:56:23;8.37;;;2.50;;
13743;SDS011;6943;52.368;9.966;2022-10-22T14:58:49;7.87;;;2.53;;
13743;SDS011;6943;52.368;9.966;2022-10-22T15:01:17;4.33;;;2.27;;
13743;SDS011;6943;52.368;9.966;2022-10-22T15:03:43;5.73;;;2.73;;
13743;SDS011;6943;52.368;9.966;2022-10-22T15:06:09;6.10;;;2.57;;
13743;SDS011;6943;52.368;9.966;2022-10-22T15:08:35;6.30;;;2.50;;
13743;SDS011;6943;52.368;9.966;2022-10-22T15:13:27;6.20;;;3.87;;
13743;SDS011;6943;52.368;9.966;2022-10-22T15:15:54;5.90;;;3.07;;
13743;SDS011;6943;52.368;9.966;2022-10-22T15:18:20;6.17;;;3.13;;
13743;SDS011;6943;52.368;9.966;2022-10-22T15:20:53;7.13;;;3.23;;
13743;SDS011;6943;52.368;9.966;2022-10-22T15:23:19;6.10;;;2.53;;
13743;SDS011;6943;52.368;9.966;2022-10-22T15:25:45;9.43;;;3.67;;
13743;SDS011;6943;52.368;9.966;2022-10-22T15:28:11;8.37;;;3.00;;
13743;SDS011;6943;52.368;9.966;2022-10-22T15:30:37;5.27;;;2.87;;
13743;SDS011;6943;52.368;9.966;2022-10-22T15:33:03;7.63;;;2.60;;
13743;SDS011;6943;52.368;9.966;2022-10-22T15:35:29;8.90;;;3.53;;
13743;SDS011;6943;52.368;9.966;2022-10-22T15:37:55;8.37;;;3.40;;
13743;SDS011;6943;52.368;9.966;2022-10-22T15:40:21;8.13;;;2.87;;
13743;SDS011;6943;52.368;9.966;2022-10-22T15:42:47;5.37;;;3.20;;
13743;SDS011;6943;52.368;9.966;2022-10-22T15:45:12;5.90;;;2.60;;
13743;SDS011;6943;52.368;9.966;2022-10-22T15:47:39;9.47;;;2.90;;
13743;SDS011;6943;52.368;9.966;2022-10-22T15:50:09;8.33;;;3.73;;
13743;SDS011;6943;52.368;9.966;2022-10-22T15:52:35;7.50;;;2.10;;
13743;SDS011;6943;52.368;9.966;2022-10-22T15:55:01;5.97;;;2.43;;
13743;SDS011;6943;52.368;9.966;2022-10-22T15:57:30;3.73;;;2.30;;
13743;SDS011;6943;52.368;9.966;2022-10-22T15:59:56;3.43;;;2.10;;
13743;SDS011;6943;52.368;9.966;2022-10-22T16:02:22;2.60;;;1.70;;
13743;SDS011;6943;52.368;9.966;2022-10-22T16:04:48;8.37;;;2.60;;
13743;SDS011;6943;52.368;9.966;2022-10-22T16:07:14;11.23;;;3.13;;
13743;SDS011;6943;52.368;9.966;2022-10-22T16:09:40;6.93;;;2.67;;
13743;SDS011;6943;52.368;9.966;2022-10-22T16:12:06;5.60;;;2.10;;
13743;SDS011;6943;52.368;9.966;2022-10-22T16:14:33;4.37;;;1.73;;
13743;SDS011;6943;52.368;9.966;2022-10-22T16:16:59;5.43;;;2.30;;
13743;SDS011;6943;52.368;9.966;2022-10-22T16:19:25;6.67;;;2.77;;
13743;SDS011;6943;52.368;9.966;2022-10-22T16:21:52;6.30;;;2.47;;